sensor_id;sensor_type;location;lat;lon;timestamp;pressure;altitude;pressure_sealevel;temperature;humidity
15382;BME280;7789;51.364;12.358;2023-12-20T00:02:39;99939.22;;;7.62;100.00
15382;BME280;7789;51.364;12.358;2023-12-20T00:07:42;99944.75;;;7.58;100.00
15382;BME280;7789;51.364;12.358;2023-12-20T00:12:47;99933.06;;;7.63;100.00
15382;BME280;7789;51.364;12.358;2023-12-20T00:17:52;99931.66;;;7.59;100.00
15382;BME280;7789;51.364;12.358;2023-12-20T00:22:56;99922.06;;;7.60;100.00
15382;BME280;7789;51.364;12.358;2023-12-20T00:28:00;99919.94;;;7.54;100.00
15382;BME280;7789;51.364;12.358;2023-12-20T00:33:05;99905.38;;;7.51;100.00
15382;BME280;7789;51.364;12.358;2023-12-20T00:38:09;99906.34;;;7.50;100.00
15382;BME280;7789;51.364;12.358;2023-12-20T00:43:13;99906.69;;;7.57;100.00
15382;BME280;7789;51.364;12.358;2023-12-20T00:48:18;99911.19;;;7.55;100.00
15382;BME280;7789;51.364;12.358;2023-12-20T00:53:21;99907.63;;;7.56;100.00
15382;BME280;7789;51.364;12.358;2023-12-20T00:58:24;99906.00;;;7.55;100.00
15382;BME280;7789;51.364;12.358;2023-12-20T01:03:30;99898.28;;;7.53;100.00
15382;BME280;7789;51.364;12.358;2023-12-20T01:08:33;99895.13;;;7.50;100.00
15382;BME280;7789;51.364;12.358;2023-12-20T01:13:38;99898.53;;;7.50;100.00
15382;BME280;7789;51.364;12.358;2023-12-20T01:18:47;99904.44;;;7.52;100.00
15382;BME280;7789;51.364;12.358;2023-12-20T01:23:52;99888.03;;;7.52;100.00
15382;BME280;7789;51.364;12.358;2023-12-20T01:28:58;99878.56;;;7.51;100.00
15382;BME280;7789;51.364;12.358;2023-12-20T01:34:05;99872.53;;;7.50;100.00
15382;BME280;7789;51.364;12.358;2023-12-20T01:39:17;99872.53;;;7.50;100.00
15382;BME280;7789;51.364;12.358;2023-12-20T01:44:30;99866.38;;;7.51;100.00
15382;BME280;7789;51.364;12.358;2023-12-20T01:49:35;99860.59;;;7.48;100.00
15382;BME280;7789;51.364;12.358;2023-12-20T01:54:40;99863.91;;;7.50;100.00
15382;BME280;7789;51.364;12.358;2023-12-20T01:59:45;99858.22;;;7.45;100.00
15382;BME280;7789;51.364;12.358;2023-12-20T02:04:50;99860.97;;;7.43;100.00
15382;BME280;7789;51.364;12.358;2023-12-20T02:09:55;99855.38;;;7.48;100.00
15382;BME280;7789;51.364;12.358;2023-12-20T02:14:59;99845.94;;;7.47;100.00
15382;BME280;7789;51.364;12.358;2023-12-20T02:20:08;99838.03;;;7.48;100.00
15382;BME280;7789;51.364;12.358;2023-12-20T02:25:19;99835.41;;;7.48;100.00
15382;BME280;7789;51.364;12.358;2023-12-20T02:30:23;99829.63;;;7.45;100.00
15382;BME280;7789;51.364;12.358;2023-12-20T02:35:26;99833.16;;;7.44;100.00
15382;BME280;7789;51.364;12.358;2023-12-20T02:40:31;99829.50;;;7.46;100.00
15382;BME280;7789;51.364;12.358;2023-12-20T02:45:35;99842.50;;;7.46;100.00
15382;BME280;7789;51.364;12.358;2023-12-20T02:50:39;99840.50;;;7.50;100.00
15382;BME280;7789;51.364;12.358;2023-12-20T02:55:43;99825.47;;;7.53;100.00
15382;BME280;7789;51.364;12.358;2023-12-20T03:00:47;99818.53;;;7.54;100.00
15382;BME280;7789;51.364;12.358;2023-12-20T03:05:51;99816.88;;;7.53;100.00
15382;BME280;7789;51.364;12.358;2023-12-20T03:10:56;99817.81;;;7.52;100.00
15382;BME280;7789;51.364;12.358;2023-12-20T03:15:59;99814.50;;;7.50;100.00
15382;BME280;7789;51.364;12.358;2023-12-20T03:21:03;99805.75;;;7.51;100.00
15382;BME280;7789;51.364;12.358;2023-12-20T03:26:09;99810.97;;;7.51;100.00
15382;BME280;7789;51.364;12.358;2023-12-20T03:31:12;99801.03;;;7.56;100.00
15382;BME280;7789;51.364;12.358;2023-12-20T03:36:15;99803.50;;;7.57;100.00
15382;BME280;7789;51.364;12.358;2023-12-20T03:41:20;99814.13;;;7.54;100.00
15382;BME280;7789;51.364;12.358;2023-12-20T03:46:24;99822.78;;;7.55;100.00
15382;BME280;7789;51.364;12.358;2023-12-20T03:51:27;99817.56;;;7.55;100.00
15382;BME280;7789;51.364;12.358;2023-12-20T03:56:32;99826.19;;;7.55;100.00
15382;BME280;7789;51.364;12.358;2023-12-20T04:01:36;99820.97;;;7.55;100.00
15382;BME280;7789;51.364;12.358;2023-12-20T04:06:40;99813.41;;;7.52;100.00
15382;BME280;7789;51.364;12.358;2023-12-20T04:11:45;99821.94;;;7.54;100.00
15382;BME280;7789;51.364;12.358;2023-12-20T04:16:49;99808.81;;;7.56;100.00
15382;BME280;7789;51.364;12.358;2023-12-20T04:21:52;99826.06;;;7.57;100.00
15382;BME280;7789;51.364;12.358;2023-12-20T04:26:56;99826.19;;;7.55;100.00
15382;BME280;7789;51.364;12.358;2023-12-20T04:32:00;99823.38;;;7.58;100.00
15382;BME280;7789;51.364;12.358;2023-12-20T04:37:03;99812.97;;;7.58;100.00
15382;BME280;7789;51.364;12.358;2023-12-20T04:42:08;99813.91;;;7.57;100.00
15382;BME280;7789;51.364;12.358;2023-12-20T04:47:12;99820.03;;;7.56;100.00
15382;BME280;7789;51.364;12.358;2023-12-20T04:52:15;99818.16;;;7.58;100.00
15382;BME280;7789;51.364;12.358;2023-12-20T04:57:20;99816.13;;;7.62;100.00
15382;BME280;7789;51.364;12.358;2023-12-20T05:02:23;99833.72;;;7.69;100.00
15382;BME280;7789;51.364;12.358;2023-12-20T05:07:27;99847.59;;;7.70;100.00
15382;BME280;7789;51.364;12.358;2023-12-20T05:12:32;99852.28;;;7.76;100.00
15382;BME280;7789;51.364;12.358;2023-12-20T05:17:35;99845.19;;;7.78;100.00
15382;BME280;7789;51.364;12.358;2023-12-20T05:22:38;99851.09;;;7.80;100.00
15382;BME280;7789;51.364;12.358;2023-12-20T05:27:43;99855.94;;;7.84;100.00
15382;BME280;7789;51.364;12.358;2023-12-20T05:32:47;99858.31;;;7.87;100.00
15382;BME280;7789;51.364;12.358;2023-12-20T05:37:50;99865.16;;;7.88;100.00
15382;BME280;7789;51.364;12.358;2023-12-20T05:42:55;99861.03;;;7.86;100.00
15382;BME280;7789;51.364;12.358;2023-12-20T05:47:58;99864.69;;;7.83;100.00
15382;BME280;7789;51.364;12.358;2023-12-20T05:53:02;99887.16;;;7.84;100.00
15382;BME280;7789;51.364;12.358;2023-12-20T05:58:07;99885.16;;;7.88;100.00
15382;BME280;7789;51.364;12.358;2023-12-20T06:03:10;99888.72;;;7.87;100.00
15382;BME280;7789;51.364;12.358;2023-12-20T06:08:13;99892.72;;;7.91;100.00
15382;BME280;7789;51.364;12.358;2023-12-20T06:13:18;99876.56;;;7.76;100.00
15382;BME280;7789;51.364;12.358;2023-12-20T06:18:21;99884.47;;;7.64;100.00
15382;BME280;7789;51.364;12.358;2023-12-20T06:23:25;99888.72;;;7.65;100.00
15382;BME280;7789;51.364;12.358;2023-12-20T06:28:31;99888.47;;;7.46;100.00
15382;BME280;7789;51.364;12.358;2023-12-20T06:33:34;99898.53;;;7.28;100.00
15382;BME280;7789;51.364;12.358;2023-12-20T06:38:37;99900.50;;;7.14;100.00
15382;BME280;7789;51.364;12.358;2023-12-20T06:43:42;99899.78;;;7.01;100.00
15382;BME280;7789;51.364;12.358;2023-12-20T06:48:51;99888.78;;;6.98;100.00
15382;BME280;7789;51.364;12.358;2023-12-20T06:53:54;99883.69;;;6.96;100.00
15382;BME280;7789;51.364;12.358;2023-12-20T06:58:59;99901.81;;;7.09;100.00
15382;BME280;7789;51.364;12.358;2023-12-20T07:04:03;99885.28;;;7.10;100.00
15382;BME280;7789;51.364;12.358;2023-12-20T07:09:06;99880.28;;;6.96;100.00
15382;BME280;7789;51.364;12.358;2023-12-20T07:14:11;99878.84;;;6.92;100.00
15382;BME280;7789;51.364;12.358;2023-12-20T07:19:15;99885.81;;;6.91;100.00
15382;BME280;7789;51.364;12.358;2023-12-20T07:24:18;99888.63;;;6.88;100.00
15382;BME280;7789;51.364;12.358;2023-12-20T07:29:23;99889.44;;;6.89;100.00
15382;BME280;7789;51.364;12.358;2023-12-20T07:34:26;99898.31;;;6.97;100.00
15382;BME280;7789;51.364;12.358;2023-12-20T07:39:30;99912.63;;;7.03;100.00
15382;BME280;7789;51.364;12.358;2023-12-20T07:44:35;99903.69;;;7.07;100.00
15382;BME280;7789;51.364;12.358;2023-12-20T07:49:38;99911.03;;;7.13;100.00
15382;BME280;7789;51.364;12.358;2023-12-20T07:54:43;99898.63;;;7.16;100.00
15382;BME280;7789;51.364;12.358;2023-12-20T07:59:48;99909.22;;;7.13;100.00
15382;BME280;7789;51.364;12.358;2023-12-20T08:04:51;99904.28;;;7.10;100.00
15382;BME280;7789;51.364;12.358;2023-12-20T08:09:54;99906.06;;;7.10;100.00
15382;BME280;7789;51.364;12.358;2023-12-20T08:15:00;99887.88;;;7.10;100.00
15382;BME280;7789;51.364;12.358;2023-12-20T08:20:05;99913.38;;;7.16;100.00
15382;BME280;7789;51.364;12.358;2023-12-20T08:25:09;99909.88;;;7.28;100.00
15382;BME280;7789;51.364;12.358;2023-12-20T08:30:14;99913.53;;;7.36;100.00
15382;BME280;7789;51.364;12.358;2023-12-20T08:35:19;99913.91;;;7.64;100.00
15382;BME280;7789;51.364;12.358;2023-12-20T08:40:22;99909.78;;;7.84;100.00
15382;BME280;7789;51.364;12.358;2023-12-20T08:45:27;99905.03;;;7.89;100.00
15382;BME280;7789;51.364;12.358;2023-12-20T08:50:31;99897.81;;;7.81;100.00
15382;BME280;7789;51.364;12.358;2023-12-20T08:55:34;99899.72;;;7.68;100.00
15382;BME280;7789;51.364;12.358;2023-12-20T09:00:39;99889.19;;;7.70;100.00
15382;BME280;7789;51.364;12.358;2023-12-20T09:05:43;99908.72;;;7.75;100.00
15382;BME280;7789;51.364;12.358;2023-12-20T09:10:46;99893.22;;;7.85;100.00
15382;BME280;7789;51.364;12.358;2023-12-20T09:15:51;99886.78;;;8.00;100.00
15382;BME280;7789;51.364;12.358;2023-12-20T09:20:55;99886.22;;;7.96;100.00
15382;BME280;7789;51.364;12.358;2023-12-20T09:25:59;99872.34;;;7.96;100.00
15382;BME280;7789;51.364;12.358;2023-12-20T09:31:04;99878.75;;;7.92;100.00
15382;BME280;7789;51.364;12.358;2023-12-20T09:36:09;99875.69;;;7.87;100.00
15382;BME280;7789;51.364;12.358;2023-12-20T09:41:12;99887.03;;;7.97;100.00
15382;BME280;7789;51.364;12.358;2023-12-20T09:46:19;99867.47;;;8.13;100.00
15382;BME280;7789;51.364;12.358;2023-12-20T09:51:25;99859.19;;;8.30;100.00
15382;BME280;7789;51.364;12.358;2023-12-20T09:56:29;99853.22;;;8.39;100.00
15382;BME280;7789;51.364;12.358;2023-12-20T10:01:35;99848.59;;;8.43;100.00
15382;BME280;7789;51.364;12.358;2023-12-20T10:06:40;99851.41;;;8.71;100.00
15382;BME280;7789;51.364;12.358;2023-12-20T10:11:44;99846.59;;;8.87;100.00
15382;BME280;7789;51.364;12.358;2023-12-20T10:16:49;99844.34;;;8.83;100.00
15382;BME280;7789;51.364;12.358;2023-12-20T10:21:53;99836.84;;;8.89;100.00
15382;BME280;7789;51.364;12.358;2023-12-20T10:27:03;99825.09;;;8.74;100.00
15382;BME280;7789;51.364;12.358;2023-12-20T10:32:25;99828.28;;;8.78;100.00
15382;BME280;7789;51.364;12.358;2023-12-20T10:37:29;99814.63;;;8.85;100.00
15382;BME280;7789;51.364;12.358;2023-12-20T10:42:32;99807.13;;;8.92;100.00
15382;BME280;7789;51.364;12.358;2023-12-20T10:47:40;99802.22;;;8.98;100.00
15382;BME280;7789;51.364;12.358;2023-12-20T10:52:45;99796.69;;;9.21;100.00
15382;BME280;7789;51.364;12.358;2023-12-20T10:57:50;99784.50;;;9.31;100.00
15382;BME280;7789;51.364;12.358;2023-12-20T11:02:59;99792.66;;;9.47;100.00
15382;BME280;7789;51.364;12.358;2023-12-20T11:08:08;99789.91;;;9.39;100.00
15382;BME280;7789;51.364;12.358;2023-12-20T11:13:17;99785.50;;;9.40;100.00
15382;BME280;7789;51.364;12.358;2023-12-20T11:18:29;99780.56;;;9.37;100.00
15382;BME280;7789;51.364;12.358;2023-12-20T11:23:34;99767.78;;;9.34;100.00
15382;BME280;7789;51.364;12.358;2023-12-20T11:28:37;99765.88;;;9.36;100.00
15382;BME280;7789;51.364;12.358;2023-12-20T11:33:43;99757.19;;;9.35;100.00
15382;BME280;7789;51.364;12.358;2023-12-20T11:38:57;99753.78;;;9.35;100.00
15382;BME280;7789;51.364;12.358;2023-12-20T11:44:01;99742.78;;;9.31;100.00
15382;BME280;7789;51.364;12.358;2023-12-20T11:49:09;99729.19;;;9.28;100.00
15382;BME280;7789;51.364;12.358;2023-12-20T11:54:13;99718.63;;;9.29;100.00
15382;BME280;7789;51.364;12.358;2023-12-20T11:59:17;99700.25;;;9.31;100.00
15382;BME280;7789;51.364;12.358;2023-12-20T12:04:26;99685.81;;;9.27;100.00
15382;BME280;7789;51.364;12.358;2023-12-20T12:09:33;99680.47;;;9.28;100.00
15382;BME280;7789;51.364;12.358;2023-12-20T12:14:38;99675.53;;;9.35;100.00
15382;BME280;7789;51.364;12.358;2023-12-20T12:19:44;99672.09;;;9.34;100.00
15382;BME280;7789;51.364;12.358;2023-12-20T12:24:47;99679.78;;;9.36;100.00
15382;BME280;7789;51.364;12.358;2023-12-20T12:30:02;99664.56;;;9.41;100.00
15382;BME280;7789;51.364;12.358;2023-12-20T12:35:07;99656.72;;;9.41;100.00
15382;BME280;7789;51.364;12.358;2023-12-20T12:40:12;99664.72;;;9.39;100.00
15382;BME280;7789;51.364;12.358;2023-12-20T12:45:16;99659.34;;;9.41;100.00
15382;BME280;7789;51.364;12.358;2023-12-20T12:50:21;99651.22;;;9.34;100.00
15382;BME280;7789;51.364;12.358;2023-12-20T12:55:25;99634.88;;;9.32;100.00
15382;BME280;7789;51.364;12.358;2023-12-20T13:00:28;99635.72;;;9.33;100.00
15382;BME280;7789;51.364;12.358;2023-12-20T13:05:33;99646.56;;;9.28;100.00
15382;BME280;7789;51.364;12.358;2023-12-20T13:10:41;99640.94;;;9.23;100.00
15382;BME280;7789;51.364;12.358;2023-12-20T13:15:56;99634.06;;;9.13;100.00
15382;BME280;7789;51.364;12.358;2023-12-20T13:21:04;99623.72;;;9.02;100.00
15382;BME280;7789;51.364;12.358;2023-12-20T13:26:08;99634.69;;;8.96;100.00
15382;BME280;7789;51.364;12.358;2023-12-20T13:31:11;99614.09;;;8.93;100.00
15382;BME280;7789;51.364;12.358;2023-12-20T13:36:32;99606.28;;;8.93;100.00
15382;BME280;7789;51.364;12.358;2023-12-20T13:41:59;99608.47;;;8.88;100.00
15382;BME280;7789;51.364;12.358;2023-12-20T13:47:08;99611.34;;;8.85;100.00
15382;BME280;7789;51.364;12.358;2023-12-20T13:52:14;99594.44;;;8.80;100.00
15382;BME280;7789;51.364;12.358;2023-12-20T13:57:18;99590.19;;;8.79;100.00
15382;BME280;7789;51.364;12.358;2023-12-20T14:02:41;99596.41;;;8.87;100.00
15382;BME280;7789;51.364;12.358;2023-12-20T14:07:46;99597.09;;;8.89;100.00
15382;BME280;7789;51.364;12.358;2023-12-20T14:12:50;99604.91;;;8.99;100.00
15382;BME280;7789;51.364;12.358;2023-12-20T14:17:54;99609.84;;;8.92;100.00
15382;BME280;7789;51.364;12.358;2023-12-20T14:22:59;99607.09;;;8.84;100.00
15382;BME280;7789;51.364;12.358;2023-12-20T14:28:03;99609.00;;;8.82;100.00
15382;BME280;7789;51.364;12.358;2023-12-20T14:33:06;99616.13;;;8.80;100.00
15382;BME280;7789;51.364;12.358;2023-12-20T14:38:11;99619.78;;;8.68;100.00
15382;BME280;7789;51.364;12.358;2023-12-20T14:43:17;99633.22;;;8.64;100.00
15382;BME280;7789;51.364;12.358;2023-12-20T14:48:20;99607.31;;;8.62;100.00
15382;BME280;7789;51.364;12.358;2023-12-20T14:53:26;99602.09;;;8.62;100.00
15382;BME280;7789;51.364;12.358;2023-12-20T14:58:29;99610.44;;;8.66;100.00
15382;BME280;7789;51.364;12.358;2023-12-20T15:03:33;99625.97;;;8.67;100.00
15382;BME280;7789;51.364;12.358;2023-12-20T15:08:38;99627.34;;;8.71;100.00
15382;BME280;7789;51.364;12.358;2023-12-20T15:13:41;99629.81;;;8.73;100.00
15382;BME280;7789;51.364;12.358;2023-12-20T15:18:45;99614.31;;;8.71;100.00
15382;BME280;7789;51.364;12.358;2023-12-20T15:23:51;99612.66;;;8.70;100.00
15382;BME280;7789;51.364;12.358;2023-12-20T15:28:55;99618.72;;;8.71;100.00
15382;BME280;7789;51.364;12.358;2023-12-20T15:33:59;99624.72;;;8.71;100.00
15382;BME280;7789;51.364;12.358;2023-12-20T15:39:04;99631.97;;;8.68;100.00
15382;BME280;7789;51.364;12.358;2023-12-20T15:44:09;99623.91;;;8.61;100.00
15382;BME280;7789;51.364;12.358;2023-12-20T15:49:13;99642.78;;;8.54;100.00
15382;BME280;7789;51.364;12.358;2023-12-20T15:54:20;99648.69;;;8.56;100.00
15382;BME280;7789;51.364;12.358;2023-12-20T15:59:23;99644.97;;;8.58;100.00
15382;BME280;7789;51.364;12.358;2023-12-20T16:04:26;99653.34;;;8.62;100.00
15382;BME280;7789;51.364;12.358;2023-12-20T16:09:31;99654.88;;;8.64;100.00
15382;BME280;7789;51.364;12.358;2023-12-20T16:14:35;99652.00;;;8.67;100.00
15382;BME280;7789;51.364;12.358;2023-12-20T16:19:39;99666.69;;;8.68;100.00
15382;BME280;7789;51.364;12.358;2023-12-20T16:24:45;99669.41;;;8.67;100.00
15382;BME280;7789;51.364;12.358;2023-12-20T16:29:49;99685.78;;;8.69;100.00
15382;BME280;7789;51.364;12.358;2023-12-20T16:34:52;99677.38;;;8.65;100.00
15382;BME280;7789;51.364;12.358;2023-12-20T16:39:57;99675.72;;;8.64;100.00
15382;BME280;7789;51.364;12.358;2023-12-20T16:45:00;99674.09;;;8.63;100.00
15382;BME280;7789;51.364;12.358;2023-12-20T16:50:05;99680.47;;;8.59;100.00
15382;BME280;7789;51.364;12.358;2023-12-20T16:55:10;99680.91;;;8.55;100.00
15382;BME280;7789;51.364;12.358;2023-12-20T17:00:15;99688.97;;;8.52;100.00
15382;BME280;7789;51.364;12.358;2023-12-20T17:05:19;99691.25;;;8.45;100.00
15382;BME280;7789;51.364;12.358;2023-12-20T17:10:24;99680.97;;;8.44;100.00
15382;BME280;7789;51.364;12.358;2023-12-20T17:15:28;99679.31;;;8.43;100.00
15382;BME280;7789;51.364;12.358;2023-12-20T17:20:31;99680.53;;;8.39;100.00
15382;BME280;7789;51.364;12.358;2023-12-20T17:25:36;99676.66;;;8.33;100.00
15382;BME280;7789;51.364;12.358;2023-12-20T17:30:42;99673.09;;;8.34;100.00
15382;BME280;7789;51.364;12.358;2023-12-20T17:35:48;99683.19;;;8.28;100.00
15382;BME280;7789;51.364;12.358;2023-12-20T17:40:57;99684.66;;;8.21;100.00
15382;BME280;7789;51.364;12.358;2023-12-20T17:46:00;99677.56;;;8.23;100.00
15382;BME280;7789;51.364;12.358;2023-12-20T17:51:04;99678.78;;;8.19;100.00
15382;BME280;7789;51.364;12.358;2023-12-20T17:56:08;99678.84;;;8.17;100.00
15382;BME280;7789;51.364;12.358;2023-12-20T18:01:12;99683.38;;;8.15;100.00
15382;BME280;7789;51.364;12.358;2023-12-20T18:06:16;99683.38;;;8.15;100.00
15382;BME280;7789;51.364;12.358;2023-12-20T18:11:21;99678.00;;;8.17;100.00
15382;BME280;7789;51.364;12.358;2023-12-20T18:16:24;99677.94;;;8.18;100.00
15382;BME280;7789;51.364;12.358;2023-12-20T18:21:28;99671.03;;;8.17;100.00
15382;BME280;7789;51.364;12.358;2023-12-20T18:26:33;99674.72;;;8.15;100.00
15382;BME280;7789;51.364;12.358;2023-12-20T18:31:40;99677.19;;;8.16;100.00
15382;BME280;7789;51.364;12.358;2023-12-20T18:36:44;99672.25;;;8.13;100.00
15382;BME280;7789;51.364;12.358;2023-12-20T18:41:51;99666.34;;;8.11;100.00
15382;BME280;7789;51.364;12.358;2023-12-20T18:46:54;99664.44;;;8.13;100.00
15382;BME280;7789;51.364;12.358;2023-12-20T18:51:58;99652.38;;;8.12;100.00
15382;BME280;7789;51.364;12.358;2023-12-20T18:57:03;99661.84;;;8.13;100.00
15382;BME280;7789;51.364;12.358;2023-12-20T19:02:09;99637.31;;;8.16;100.00
15382;BME280;7789;51.364;12.358;2023-12-20T19:07:14;99622.53;;;8.16;100.00
15382;BME280;7789;51.364;12.358;2023-12-20T19:12:19;99614.84;;;8.15;100.00
15382;BME280;7789;51.364;12.358;2023-12-20T19:17:22;99604.97;;;8.09;100.00
15382;BME280;7789;51.364;12.358;2023-12-20T19:22:27;99597.84;;;8.11;100.00
15382;BME280;7789;51.364;12.358;2023-12-20T19:27:35;99601.78;;;8.05;100.00
15382;BME280;7789;51.364;12.358;2023-12-20T19:32:39;99603.19;;;8.09;100.00
15382;BME280;7789;51.364;12.358;2023-12-20T19:37:42;99591.25;;;8.07;100.00
15382;BME280;7789;51.364;12.358;2023-12-20T19:42:50;99576.34;;;8.09;100.00
15382;BME280;7789;51.364;12.358;2023-12-20T19:47:53;99569.38;;;8.09;100.00
15382;BME280;7789;51.364;12.358;2023-12-20T19:52:57;99565.09;;;8.08;100.00
15382;BME280;7789;51.364;12.358;2023-12-20T19:58:02;99560.59;;;8.10;100.00
15382;BME280;7789;51.364;12.358;2023-12-20T20:03:05;99557.03;;;8.11;100.00
15382;BME280;7789;51.364;12.358;2023-12-20T20:08:09;99561.13;;;8.14;100.00
15382;BME280;7789;51.364;12.358;2023-12-20T20:13:13;99555.94;;;8.14;100.00
15382;BME280;7789;51.364;12.358;2023-12-20T20:18:18;99556.50;;;8.17;100.00
15382;BME280;7789;51.364;12.358;2023-12-20T20:23:21;99557.38;;;8.18;100.00
15382;BME280;7789;51.364;12.358;2023-12-20T20:28:26;99551.75;;;8.22;100.00
15382;BME280;7789;51.364;12.358;2023-12-20T20:33:31;99536.03;;;8.24;100.00
15382;BME280;7789;51.364;12.358;2023-12-20T20:38:34;99530.66;;;8.25;100.00
15382;BME280;7789;51.364;12.358;2023-12-20T20:43:39;99527.81;;;8.28;100.00
15382;BME280;7789;51.364;12.358;2023-12-20T20:48:42;99514.81;;;8.28;100.00
15382;BME280;7789;51.364;12.358;2023-12-20T20:53:53;99523.03;;;8.33;100.00
15382;BME280;7789;51.364;12.358;2023-12-20T20:59:14;99523.84;;;8.34;100.00
15382;BME280;7789;51.364;12.358;2023-12-20T21:04:17;99507.97;;;8.37;100.00
15382;BME280;7789;51.364;12.358;2023-12-20T21:09:20;99501.66;;;8.39;100.00
15382;BME280;7789;51.364;12.358;2023-12-20T21:14:25;99491.94;;;8.41;100.00
15382;BME280;7789;51.364;12.358;2023-12-20T21:19:28;99473.59;;;8.43;100.00
15382;BME280;7789;51.364;12.358;2023-12-20T21:24:32;99452.88;;;8.41;100.00
15382;BME280;7789;51.364;12.358;2023-12-20T21:29:39;99445.22;;;8.40;100.00
15382;BME280;7789;51.364;12.358;2023-12-20T21:34:42;99429.88;;;8.37;100.00
15382;BME280;7789;51.364;12.358;2023-12-20T21:39:45;99415.47;;;8.42;100.00
15382;BME280;7789;51.364;12.358;2023-12-20T21:44:50;99401.63;;;8.42;100.00
15382;BME280;7789;51.364;12.358;2023-12-20T21:49:54;99393.41;;;8.46;100.00
15382;BME280;7789;51.364;12.358;2023-12-20T21:54:57;99371.34;;;8.50;100.00
15382;BME280;7789;51.364;12.358;2023-12-20T22:00:02;99361.63;;;8.52;100.00
15382;BME280;7789;51.364;12.358;2023-12-20T22:05:06;99348.31;;;8.55;100.00
15382;BME280;7789;51.364;12.358;2023-12-20T22:10:10;99338.56;;;8.57;100.00
15382;BME280;7789;51.364;12.358;2023-12-20T22:15:15;99330.50;;;8.60;100.00
15382;BME280;7789;51.364;12.358;2023-12-20T22:20:19;99315.41;;;8.64;100.00
15382;BME280;7789;51.364;12.358;2023-12-20T22:25:22;99304.19;;;8.63;100.00
15382;BME280;7789;51.364;12.358;2023-12-20T22:30:33;99288.53;;;8.63;100.00
15382;BME280;7789;51.364;12.358;2023-12-20T22:35:37;99276.63;;;8.61;100.00
15382;BME280;7789;51.364;12.358;2023-12-20T22:40:40;99268.13;;;8.59;100.00
15382;BME280;7789;51.364;12.358;2023-12-20T22:45:46;99250.69;;;8.59;100.00
15382;BME280;7789;51.364;12.358;2023-12-20T22:50:49;99239.47;;;8.59;100.00
15382;BME280;7789;51.364;12.358;2023-12-20T22:55:53;99238.22;;;8.63;100.00
15382;BME280;7789;51.364;12.358;2023-12-20T23:00:57;99243.31;;;8.64;100.00
15382;BME280;7789;51.364;12.358;2023-12-20T23:06:02;99237.81;;;8.67;100.00
15382;BME280;7789;51.364;12.358;2023-12-20T23:11:06;99231.63;;;8.68;100.00
15382;BME280;7789;51.364;12.358;2023-12-20T23:16:10;99228.72;;;8.71;100.00
15382;BME280;7789;51.364;12.358;2023-12-20T23:21:14;99222.84;;;8.69;100.00
15382;BME280;7789;51.364;12.358;2023-12-20T23:26:17;99204.63;;;8.69;100.00
15382;BME280;7789;51.364;12.358;2023-12-20T23:31:23;99188.03;;;8.70;100.00
15382;BME280;7789;51.364;12.358;2023-12-20T23:36:27;99179.41;;;8.70;100.00
15382;BME280;7789;51.364;12.358;2023-12-20T23:41:31;99168.00;;;8.71;100.00
15382;BME280;7789;51.364;12.358;2023-12-20T23:46:36;99164.28;;;8.73;100.00
15382;BME280;7789;51.364;12.358;2023-12-20T23:51:39;99164.00;;;8.76;100.00
15382;BME280;7789;51.364;12.358;2023-12-20T23:56:43;99144.53;;;8.80;100.00
